createdAt,value
2023-04-22T00:01:05.321Z,13.60
2023-04-22T00:03:33.906Z,13.50
2023-04-22T00:06:01.170Z,13.50
2023-04-22T00:08:28.190Z,13.50
2023-04-22T00:10:56.763Z,13.40
2023-04-22T00:13:23.699Z,13.50
2023-04-22T00:15:51.254Z,13.40
2023-04-22T00:18:18.328Z,13.40
2023-04-22T00:20:45.925Z,13.30
2023-04-22T00:23:13.334Z,13.30
2023-04-22T00:25:40.649Z,13.20
2023-04-22T00:28:07.866Z,13.20
2023-04-22T00:30:35.882Z,13.20
2023-04-22T00:33:03.014Z,13.10
2023-04-22T00:35:30.221Z,13.20
2023-04-22T00:37:57.169Z,13.20
2023-04-22T00:40:23.983Z,13.20
2023-04-22T00:42:51.254Z,13.20
2023-04-22T00:45:19.423Z,13.20
2023-04-22T00:47:47.063Z,13.20
2023-04-22T00:50:14.429Z,13.20
2023-04-22T00:52:41.538Z,13.20
2023-04-22T00:55:09.470Z,13.30
2023-04-22T00:57:37.134Z,13.20
2023-04-22T01:00:05.542Z,13.20
2023-04-22T01:02:33.188Z,13.20
2023-04-22T01:05:01.207Z,13.20
2023-04-22T01:07:28.628Z,13.20
2023-04-22T01:09:55.642Z,13.20
2023-04-22T01:12:22.623Z,13.20
2023-04-22T01:14:49.756Z,13.20
2023-04-22T01:17:19.459Z,13.20
2023-04-22T01:19:47.555Z,13.20
2023-04-22T01:22:15.121Z,13.20
2023-04-22T01:24:42.100Z,13.20
2023-04-22T01:27:09.673Z,13.10
2023-04-22T01:29:38.629Z,13.10
2023-04-22T01:32:06.451Z,13.10
2023-04-22T01:34:33.573Z,13.10
2023-04-22T01:37:00.481Z,13.10
2023-04-22T01:39:27.655Z,13.00
2023-04-22T01:41:55.736Z,13.00
2023-04-22T01:44:22.930Z,13.00
2023-04-22T01:46:50.917Z,13.00
2023-04-22T01:49:17.834Z,13.00
2023-04-22T01:51:44.724Z,12.90
2023-04-22T01:54:13.709Z,12.90
2023-04-22T01:56:41.648Z,12.90
2023-04-22T01:59:09.158Z,12.90
2023-04-22T02:01:37.929Z,12.80
2023-04-22T02:04:06.734Z,12.80
2023-04-22T02:06:33.630Z,12.80
2023-04-22T02:09:00.716Z,12.70
2023-04-22T02:11:27.628Z,12.70
2023-04-22T02:13:54.548Z,12.60
2023-04-22T02:16:21.676Z,12.60
2023-04-22T02:18:49.145Z,12.60
2023-04-22T02:21:16.021Z,12.60
2023-04-22T02:23:43.034Z,12.60
2023-04-22T02:26:10.205Z,12.50
2023-04-22T02:28:37.097Z,12.60
2023-04-22T02:31:04.345Z,12.50
2023-04-22T02:33:31.144Z,12.50
2023-04-22T02:35:58.025Z,12.60
2023-04-22T02:38:24.854Z,12.60
2023-04-22T02:40:51.700Z,12.50
2023-04-22T02:43:18.861Z,12.50
2023-04-22T02:45:45.891Z,12.50
2023-04-22T02:48:13.154Z,12.60
2023-04-22T02:50:40.155Z,12.60
2023-04-22T02:53:08.624Z,12.60
2023-04-22T02:55:35.511Z,12.60
2023-04-22T02:58:02.614Z,12.60
2023-04-22T03:00:29.663Z,12.60
2023-04-22T03:02:56.819Z,12.60
2023-04-22T03:05:28.778Z,12.60
2023-04-22T03:07:56.128Z,12.60
2023-04-22T03:10:22.908Z,12.60
2023-04-22T03:12:50.926Z,12.60
2023-04-22T03:15:21.287Z,12.60
2023-04-22T03:17:49.192Z,12.60
2023-04-22T03:20:16.697Z,12.60
2023-04-22T03:22:43.742Z,12.60
2023-04-22T03:25:12.488Z,12.60
2023-04-22T03:27:39.646Z,12.60
2023-04-22T03:30:07.207Z,12.60
2023-04-22T03:32:34.361Z,12.60
2023-04-22T03:35:15.815Z,12.60
2023-04-22T03:37:43.070Z,12.50
2023-04-22T03:40:13.763Z,12.50
2023-04-22T03:42:41.400Z,12.50
2023-04-22T03:45:08.746Z,12.50
2023-04-22T03:47:40.063Z,12.50
2023-04-22T03:50:16.961Z,12.50
2023-04-22T03:52:44.185Z,12.60
2023-04-22T03:55:11.274Z,12.50
2023-04-22T03:57:38.233Z,12.60
2023-04-22T04:00:05.858Z,12.60
2023-04-22T04:02:41.724Z,12.60
2023-04-22T04:05:12.311Z,12.60
2023-04-22T04:07:40.299Z,12.60
2023-04-22T04:10:08.130Z,12.60
2023-04-22T04:12:35.102Z,12.60
2023-04-22T04:15:02.165Z,12.60
2023-04-22T04:17:30.648Z,12.60
2023-04-22T04:19:57.878Z,12.60
2023-04-22T04:22:27.911Z,12.60
2023-04-22T04:24:58.268Z,12.60
2023-04-22T04:27:29.899Z,12.60
2023-04-22T04:29:56.958Z,12.50
2023-04-22T04:32:38.247Z,12.40
2023-04-22T04:35:09.209Z,12.40
2023-04-22T04:37:37.138Z,12.40
2023-04-22T04:40:12.288Z,12.40
2023-04-22T04:42:55.753Z,12.40
2023-04-22T04:45:26.527Z,12.30
2023-04-22T04:47:55.004Z,12.20
2023-04-22T04:50:30.540Z,12.10
2023-04-22T04:53:01.577Z,12.10
2023-04-22T04:55:35.460Z,12.10
2023-04-22T04:58:07.005Z,12.10
2023-04-22T05:00:33.915Z,12.10
2023-04-22T05:03:01.322Z,12.10
2023-04-22T05:05:29.535Z,12.20
2023-04-22T05:07:57.272Z,12.30
2023-04-22T05:10:25.479Z,12.30
2023-04-22T05:12:52.829Z,12.40
2023-04-22T05:15:23.430Z,12.40
2023-04-22T05:17:50.360Z,12.40
2023-04-22T05:20:17.334Z,12.50
2023-04-22T05:22:45.930Z,12.50
2023-04-22T05:25:14.192Z,12.50
2023-04-22T05:27:49.059Z,12.50
2023-04-22T05:30:18.666Z,12.50
2023-04-22T05:32:45.569Z,12.50
2023-04-22T05:35:12.641Z,12.50
2023-04-22T05:37:41.227Z,12.50
2023-04-22T05:40:08.764Z,12.50
2023-04-22T05:42:35.636Z,12.50
2023-04-22T05:45:02.532Z,12.50
2023-04-22T05:47:30.296Z,12.60
2023-04-22T05:49:57.685Z,12.60
2023-04-22T05:52:36.082Z,12.60
2023-04-22T05:55:11.874Z,12.70
2023-04-22T05:57:38.899Z,12.80
2023-04-22T06:00:12.552Z,12.80
2023-04-22T06:02:47.489Z,12.80
2023-04-22T06:05:14.668Z,12.80
2023-04-22T06:07:41.547Z,12.90
2023-04-22T06:10:09.108Z,12.90
2023-04-22T06:12:35.968Z,13.00
2023-04-22T06:15:04.076Z,13.10
2023-04-22T06:17:31.133Z,13.20
2023-04-22T06:19:58.040Z,13.30
2023-04-22T06:22:24.992Z,13.30
2023-04-22T06:24:52.155Z,13.40
2023-04-22T06:27:19.102Z,13.40
2023-04-22T06:29:46.501Z,13.40
2023-04-22T06:32:13.619Z,13.40
2023-04-22T06:34:42.169Z,13.50
2023-04-22T06:37:09.298Z,13.60
2023-04-22T06:39:36.581Z,13.60
2023-04-22T06:42:20.815Z,13.60
2023-04-22T06:45:12.796Z,13.70
2023-04-22T06:47:54.022Z,13.70
2023-04-22T06:50:24.412Z,13.80
2023-04-22T06:52:54.987Z,13.90
2023-04-22T06:55:23.668Z,13.90
2023-04-22T06:57:51.442Z,14.00
2023-04-22T07:00:18.515Z,14.10
2023-04-22T07:02:46.421Z,14.10
2023-04-22T07:05:13.374Z,14.30
2023-04-22T07:07:40.366Z,14.40
2023-04-22T07:10:10.725Z,14.60
2023-04-22T07:12:43.304Z,14.70
2023-04-22T07:15:10.453Z,14.90
2023-04-22T07:17:37.219Z,15.00
2023-04-22T07:20:04.412Z,15.00
2023-04-22T07:22:31.240Z,15.20
2023-04-22T07:24:58.108Z,15.40
2023-04-22T07:27:25.036Z,15.80
2023-04-22T07:29:51.869Z,16.30
2023-04-22T07:32:18.712Z,16.90
2023-04-22T07:34:45.540Z,17.50
2023-04-22T07:37:12.389Z,18.10
2023-04-22T07:39:40.452Z,18.60
2023-04-22T07:42:07.592Z,19.10
2023-04-22T07:44:34.404Z,19.60
2023-04-22T07:47:01.200Z,20.00
2023-04-22T07:49:28.128Z,20.50
2023-04-22T07:51:55.130Z,21.00
2023-04-22T07:54:21.939Z,21.50
2023-04-22T07:56:48.751Z,21.80
2023-04-22T07:59:15.628Z,22.10
2023-04-22T08:01:42.608Z,22.20
2023-04-22T08:04:09.607Z,22.20
2023-04-22T08:06:36.681Z,22.30
2023-04-22T08:09:03.917Z,22.50
2023-04-22T08:11:30.874Z,22.70
2023-04-22T08:13:57.743Z,23.00
2023-04-22T08:16:24.763Z,23.40
2023-04-22T08:18:52.443Z,23.60
2023-04-22T08:21:19.299Z,23.70
2023-04-22T08:23:46.337Z,23.70
2023-04-22T08:26:15.264Z,23.70
2023-04-22T08:28:42.681Z,23.90
2023-04-22T08:31:10.761Z,24.10
2023-04-22T08:33:37.630Z,24.10
2023-04-22T08:36:04.585Z,24.10
2023-04-22T08:38:31.598Z,24.00
2023-04-22T08:40:59.240Z,23.80
2023-04-22T08:43:26.847Z,23.70
2023-04-22T08:45:53.880Z,23.70
2023-04-22T08:48:20.877Z,23.90
2023-04-22T08:50:49.316Z,23.90
2023-04-22T08:53:16.318Z,24.10
2023-04-22T08:55:44.986Z,24.30
2023-04-22T08:58:12.892Z,24.60
2023-04-22T09:00:43.989Z,24.90
2023-04-22T09:03:11.620Z,25.20
2023-04-22T09:05:41.695Z,25.50
2023-04-22T09:08:10.037Z,25.70
2023-04-22T09:10:38.517Z,25.90
2023-04-22T09:13:06.758Z,26.30
2023-04-22T09:15:34.363Z,26.60
2023-04-22T09:18:04.210Z,26.80
2023-04-22T09:20:31.829Z,26.90
2023-04-22T09:23:04.147Z,27.00
2023-04-22T09:25:34.507Z,27.10
2023-04-22T09:28:02.015Z,27.10
2023-04-22T09:30:29.995Z,27.00
2023-04-22T09:33:01.646Z,26.90
2023-04-22T09:35:46.707Z,27.00
2023-04-22T09:38:13.946Z,27.00
2023-04-22T09:40:44.541Z,26.90
2023-04-22T09:43:11.837Z,26.80
2023-04-22T09:45:41.266Z,26.60
2023-04-22T09:48:12.030Z,26.50
2023-04-22T09:50:41.316Z,26.40
2023-04-22T09:53:10.170Z,26.30
2023-04-22T09:55:44.168Z,26.30
2023-04-22T09:58:13.429Z,26.40
2023-04-22T10:00:47.788Z,26.60
2023-04-22T10:05:44.891Z,27.10
2023-04-22T10:08:13.058Z,27.40
2023-04-22T10:10:40.508Z,27.60
2023-04-22T10:13:08.340Z,27.90
2023-04-22T10:15:39.339Z,28.00
2023-04-22T10:18:10.230Z,27.80
2023-04-22T10:20:39.467Z,27.70
2023-04-22T10:23:12.395Z,27.80
2023-04-22T10:25:40.538Z,28.00
2023-04-22T10:28:10.440Z,28.10
2023-04-22T10:30:39.673Z,28.00
2023-04-22T10:33:21.732Z,27.70
2023-04-22T10:36:10.539Z,27.50
2023-04-22T10:39:01.657Z,27.30
2023-04-22T10:41:35.534Z,27.20
2023-04-22T10:44:07.015Z,27.20
2023-04-22T10:46:40.411Z,27.10
2023-04-22T10:49:18.774Z,27.10
2023-04-22T10:51:51.303Z,27.10
2023-04-22T10:54:32.631Z,26.80
2023-04-22T10:57:10.184Z,26.40
2023-04-22T10:59:50.255Z,25.90
2023-04-22T11:02:19.251Z,25.50
2023-04-22T11:04:46.740Z,25.30
2023-04-22T11:07:30.650Z,25.10
2023-04-22T11:10:05.476Z,24.90
2023-04-22T11:12:45.009Z,24.80
2023-04-22T11:15:16.844Z,24.70
2023-04-22T11:17:46.207Z,24.50
2023-04-22T11:20:17.185Z,24.10
2023-04-22T11:22:50.727Z,24.00
2023-04-22T11:25:17.789Z,23.70
2023-04-22T11:27:45.493Z,23.50
2023-04-22T11:30:14.741Z,23.50
2023-04-22T11:32:52.848Z,23.30
2023-04-22T11:35:20.801Z,23.20
2023-04-22T11:38:00.191Z,23.20
2023-04-22T11:40:31.656Z,23.00
2023-04-22T11:43:01.767Z,22.90
2023-04-22T11:45:30.472Z,22.80
2023-04-22T11:47:58.083Z,22.80
2023-04-22T11:50:27.659Z,22.70
2023-04-22T11:53:16.020Z,22.60
2023-04-22T11:55:44.542Z,22.50
2023-04-22T11:58:20.396Z,22.40
2023-04-22T12:00:50.306Z,22.30
2023-04-22T12:03:19.922Z,22.20
2023-04-22T12:05:48.239Z,22.20
2023-04-22T12:08:20.653Z,22.10
2023-04-22T12:10:55.285Z,22.00
2023-04-22T12:13:24.688Z,21.90
2023-04-22T12:16:14.712Z,21.80
2023-04-22T12:18:55.534Z,21.60
2023-04-22T12:21:25.102Z,21.50
2023-04-22T12:23:54.935Z,21.40
2023-04-22T12:26:26.663Z,21.30
2023-04-22T12:28:55.072Z,21.20
2023-04-22T12:31:22.032Z,21.20
2023-04-22T12:33:49.453Z,21.10
2023-04-22T12:36:18.378Z,21.00
2023-04-22T12:38:45.318Z,20.90
2023-04-22T12:41:12.171Z,20.80
2023-04-22T12:43:39.888Z,20.70
2023-04-22T12:46:08.846Z,20.70
2023-04-22T12:48:38.868Z,20.60
2023-04-22T12:51:06.865Z,20.60
2023-04-22T12:53:33.901Z,20.50
2023-04-22T12:56:00.977Z,20.50
2023-04-22T12:58:27.749Z,20.50
2023-04-22T13:00:54.628Z,20.50
2023-04-22T13:03:21.749Z,20.50
2023-04-22T13:05:48.878Z,20.50
2023-04-22T13:08:16.166Z,20.50
2023-04-22T13:10:43.200Z,20.50
2023-04-22T13:13:18.284Z,20.50
2023-04-22T13:15:47.609Z,20.50
2023-04-22T13:18:16.154Z,20.50
2023-04-22T13:20:43.696Z,20.50
2023-04-22T13:23:10.830Z,20.40
2023-04-22T13:25:37.890Z,20.40
2023-04-22T13:28:04.982Z,20.40
2023-04-22T13:30:31.776Z,20.40
2023-04-22T13:32:58.672Z,20.40
2023-04-22T13:35:25.697Z,20.50
2023-04-22T13:37:52.691Z,20.50
2023-04-22T13:40:19.653Z,20.50
2023-04-22T13:42:46.569Z,20.40
2023-04-22T13:45:13.534Z,20.40
2023-04-22T13:47:40.341Z,20.40
2023-04-22T13:50:08.350Z,20.40
2023-04-22T13:52:35.574Z,20.40
2023-04-22T13:55:05.663Z,20.40
2023-04-22T13:57:32.583Z,20.30
2023-04-22T13:59:59.607Z,20.30
2023-04-22T14:02:26.755Z,20.20
2023-04-22T14:04:53.654Z,20.10
2023-04-22T14:07:20.714Z,20.10
2023-04-22T14:09:47.550Z,20.10
2023-04-22T14:12:14.477Z,20.00
2023-04-22T14:14:41.292Z,20.00
2023-04-22T14:17:08.328Z,20.00
2023-04-22T14:19:38.990Z,20.00
2023-04-22T14:22:06.629Z,20.00
2023-04-22T14:24:33.647Z,19.90
2023-04-22T14:27:01.763Z,19.80
2023-04-22T14:29:29.928Z,19.80
2023-04-22T14:31:58.138Z,19.80
2023-04-22T14:34:26.915Z,19.80
2023-04-22T14:36:53.823Z,19.80
2023-04-22T14:39:21.722Z,19.70
2023-04-22T14:41:48.853Z,19.70
2023-04-22T14:44:16.058Z,19.70
2023-04-22T14:46:42.943Z,19.70
2023-04-22T14:49:10.039Z,19.70
2023-04-22T14:51:37.047Z,19.60
2023-04-22T14:54:04.782Z,19.60
2023-04-22T14:56:31.608Z,19.60
2023-04-22T14:58:58.494Z,19.60
2023-04-22T15:01:25.796Z,19.60
2023-04-22T15:03:52.734Z,19.50
2023-04-22T15:06:19.664Z,19.50
2023-04-22T15:08:46.412Z,19.50
2023-04-22T15:11:13.333Z,19.50
2023-04-22T15:13:40.308Z,19.40
2023-04-22T15:16:07.499Z,19.40
2023-04-22T15:18:34.501Z,19.40
2023-04-22T15:21:03.308Z,19.40
2023-04-22T15:23:30.284Z,19.30
2023-04-22T15:25:57.149Z,19.20
2023-04-22T15:28:24.539Z,19.10
2023-04-22T15:30:51.664Z,19.00
2023-04-22T15:33:18.565Z,18.90
2023-04-22T15:35:47.598Z,18.80
2023-04-22T15:38:14.430Z,18.70
2023-04-22T15:40:41.415Z,18.70
2023-04-22T15:43:08.248Z,18.60
2023-04-22T15:45:35.625Z,18.50
2023-04-22T15:48:02.918Z,18.50
2023-04-22T15:50:29.792Z,18.40
2023-04-22T15:52:56.593Z,18.40
2023-04-22T15:55:23.532Z,18.20
2023-04-22T15:57:50.526Z,18.20
2023-04-22T16:00:17.606Z,18.10
2023-04-22T16:02:45.112Z,18.10
2023-04-22T16:05:13.986Z,18.00
2023-04-22T16:07:41.130Z,17.90
2023-04-22T16:10:09.065Z,17.80
2023-04-22T16:12:35.845Z,17.70
2023-04-22T16:15:02.928Z,17.60
2023-04-22T16:17:30.181Z,17.50
2023-04-22T16:19:57.170Z,17.40
2023-04-22T16:22:24.098Z,17.30
2023-04-22T16:24:51.364Z,17.30
2023-04-22T16:27:19.347Z,17.20
2023-04-22T16:29:46.560Z,17.20
2023-04-22T16:32:13.600Z,17.10
2023-04-22T16:34:40.513Z,17.10
2023-04-22T16:37:07.887Z,17.10
2023-04-22T16:39:34.770Z,17.10
2023-04-22T16:42:02.834Z,17.10
2023-04-22T16:44:29.833Z,17.10
2023-04-22T16:46:56.769Z,17.10
2023-04-22T16:49:23.711Z,17.10
2023-04-22T16:51:50.760Z,17.20
2023-04-22T16:54:17.682Z,17.20
2023-04-22T16:56:44.516Z,17.20
2023-04-22T16:59:11.375Z,17.20
2023-04-22T17:01:38.292Z,17.20
2023-04-22T17:04:05.185Z,17.10
2023-04-22T17:06:32.605Z,17.20
2023-04-22T17:08:59.994Z,17.20
2023-04-22T17:11:26.875Z,17.20
2023-04-22T17:13:53.878Z,17.30
2023-04-22T17:16:21.007Z,17.30
2023-04-22T17:18:48.082Z,17.30
2023-04-22T17:21:16.908Z,17.40
2023-04-22T17:23:43.864Z,17.40
2023-04-22T17:26:10.812Z,17.40
2023-04-22T17:28:37.731Z,17.40
2023-04-22T17:31:04.691Z,17.40
2023-04-22T17:33:31.641Z,17.40
2023-04-22T17:35:58.679Z,17.30
2023-04-22T17:38:25.689Z,17.30
2023-04-22T17:40:52.668Z,17.20
2023-04-22T17:43:19.544Z,17.10
2023-04-22T17:45:46.365Z,17.10
2023-04-22T17:48:13.214Z,17.00
2023-04-22T17:50:40.145Z,17.00
2023-04-22T17:53:07.300Z,17.00
2023-04-22T17:55:38.786Z,16.90
2023-04-22T17:58:06.080Z,17.00
2023-04-22T18:00:34.527Z,17.00
2023-04-22T18:03:01.957Z,17.00
2023-04-22T18:05:29.006Z,17.00
2023-04-22T18:08:02.385Z,17.00
2023-04-22T18:10:30.489Z,17.00
2023-04-22T18:12:57.346Z,17.00
2023-04-22T18:15:27.180Z,17.00
2023-04-22T18:17:54.184Z,16.90
2023-04-22T18:20:21.720Z,16.90
2023-04-22T18:22:51.906Z,16.90
2023-04-22T18:25:19.088Z,16.80
2023-04-22T18:27:46.473Z,16.80
2023-04-22T18:30:13.802Z,16.80
2023-04-22T18:32:40.993Z,16.80
2023-04-22T18:35:08.537Z,16.80
2023-04-22T18:37:35.437Z,16.80
2023-04-22T18:40:02.869Z,16.80
2023-04-22T18:42:30.327Z,16.70
2023-04-22T18:44:57.447Z,16.70
2023-04-22T18:47:24.559Z,16.70
2023-04-22T18:49:51.594Z,16.60
2023-04-22T18:52:18.949Z,16.60
2023-04-22T18:54:45.944Z,16.60
2023-04-22T18:57:12.793Z,16.60
2023-04-22T18:59:39.772Z,16.60
2023-04-22T19:02:07.137Z,16.60
2023-04-22T19:04:34.225Z,16.50
2023-04-22T19:07:01.231Z,16.40
2023-04-22T19:09:29.182Z,16.40
2023-04-22T19:11:56.030Z,16.30
2023-04-22T19:14:22.886Z,16.30
2023-04-22T19:16:49.896Z,16.20
2023-04-22T19:19:16.976Z,16.20
2023-04-22T19:21:44.456Z,16.10
2023-04-22T19:24:13.609Z,16.00
2023-04-22T19:26:41.333Z,16.00
2023-04-22T19:29:08.700Z,15.90
2023-04-22T19:31:35.814Z,15.90
2023-04-22T19:34:02.992Z,15.90
2023-04-22T19:36:29.981Z,15.80
2023-04-22T19:38:56.847Z,15.80
2023-04-22T19:41:24.126Z,15.70
2023-04-22T19:43:51.368Z,15.70
2023-04-22T19:46:18.479Z,15.70
2023-04-22T19:48:45.706Z,15.60
2023-04-22T19:51:12.856Z,15.60
2023-04-22T19:53:41.343Z,15.60
2023-04-22T19:56:09.379Z,15.50
2023-04-22T19:58:36.378Z,15.50
2023-04-22T20:01:04.358Z,15.50
2023-04-22T20:03:31.601Z,15.40
2023-04-22T20:05:59.337Z,15.40
2023-04-22T20:08:28.076Z,15.40
2023-04-22T20:10:55.511Z,15.30
2023-04-22T20:13:22.736Z,15.30
2023-04-22T20:15:50.324Z,15.20
2023-04-22T20:18:17.672Z,15.20
2023-04-22T20:20:48.162Z,15.10
2023-04-22T20:23:15.472Z,15.10
2023-04-22T20:25:47.099Z,15.00
2023-04-22T20:28:14.370Z,15.00
2023-04-22T20:30:41.566Z,15.00
2023-04-22T20:33:12.077Z,15.00
2023-04-22T20:35:40.325Z,14.90
2023-04-22T20:38:12.413Z,14.90
2023-04-22T20:40:40.142Z,14.90
2023-04-22T20:43:07.812Z,14.90
2023-04-22T20:45:35.147Z,14.90
2023-04-22T20:48:02.445Z,14.90
2023-04-22T20:50:33.438Z,14.80
2023-04-22T20:53:01.394Z,14.80
2023-04-22T20:55:28.194Z,14.80
2023-04-22T20:57:55.177Z,14.80
2023-04-22T21:00:22.429Z,14.80
2023-04-22T21:02:50.323Z,14.80
2023-04-22T21:05:17.920Z,14.70
2023-04-22T21:07:52.236Z,14.70
2023-04-22T21:10:22.718Z,14.60
2023-04-22T21:12:49.947Z,14.50
2023-04-22T21:15:17.326Z,14.50
2023-04-22T21:17:52.422Z,14.40
2023-04-22T21:20:19.966Z,14.40
2023-04-22T21:22:47.727Z,14.50
2023-04-22T21:25:21.962Z,14.50
2023-04-22T21:27:49.084Z,14.40
2023-04-22T21:30:16.465Z,14.40
2023-04-22T21:32:44.100Z,14.40
2023-04-22T21:35:11.289Z,14.40
2023-04-22T21:37:38.185Z,14.40
2023-04-22T21:40:08.185Z,14.40
2023-04-22T21:42:35.233Z,14.40
2023-04-22T21:45:02.151Z,14.40
2023-04-22T21:47:29.063Z,14.40
2023-04-22T21:49:56.134Z,14.30
2023-04-22T21:52:23.044Z,14.30
2023-04-22T21:54:50.095Z,14.20
2023-04-22T21:57:17.112Z,14.20
2023-04-22T21:59:43.937Z,14.10
2023-04-22T22:02:10.788Z,14.00
2023-04-22T22:04:37.933Z,13.90
2023-04-22T22:07:05.064Z,13.90
2023-04-22T22:09:32.531Z,13.80
2023-04-22T22:11:59.362Z,13.70
2023-04-22T22:14:26.195Z,13.70
2023-04-22T22:16:53.753Z,13.60
2023-04-22T22:19:21.233Z,13.70
2023-04-22T22:21:48.157Z,13.60
2023-04-22T22:24:15.159Z,13.70
2023-04-22T22:26:43.309Z,13.60
2023-04-22T22:29:15.506Z,13.70
2023-04-22T22:31:44.277Z,13.70
2023-04-22T22:34:11.522Z,13.80
2023-04-22T22:36:38.404Z,13.80
2023-04-22T22:39:05.549Z,13.80
2023-04-22T22:41:32.415Z,13.90
2023-04-22T22:43:59.360Z,13.90
2023-04-22T22:46:26.632Z,13.90
2023-04-22T22:48:54.587Z,13.80
2023-04-22T22:51:21.896Z,13.80
2023-04-22T22:53:48.814Z,13.80
2023-04-22T22:56:15.849Z,13.80
2023-04-22T22:58:42.674Z,13.80
2023-04-22T23:01:09.543Z,13.80
2023-04-22T23:03:37.368Z,13.80
2023-04-22T23:06:04.940Z,13.80
2023-04-22T23:08:31.726Z,13.90
2023-04-22T23:10:58.751Z,13.90
2023-04-22T23:13:25.558Z,13.90
2023-04-22T23:15:52.438Z,14.00
2023-04-22T23:18:19.431Z,13.90
2023-04-22T23:20:50.667Z,14.00
2023-04-22T23:23:18.724Z,14.00
2023-04-22T23:25:49.438Z,13.90
2023-04-22T23:28:16.529Z,13.90
2023-04-22T23:30:44.196Z,13.90
2023-04-22T23:33:14.495Z,13.80
2023-04-22T23:35:41.686Z,13.80
2023-04-22T23:38:11.012Z,13.80
2023-04-22T23:40:37.849Z,13.70
2023-04-22T23:43:04.759Z,13.70
2023-04-22T23:45:31.698Z,13.70
2023-04-22T23:47:58.806Z,13.60
2023-04-22T23:50:25.584Z,13.60
2023-04-22T23:52:52.502Z,13.60
2023-04-22T23:55:19.638Z,13.60
2023-04-22T23:57:46.944Z,13.50
